Sid Moller — WDF9421 — position and weather

sailwx.info

Track history (hours):
 
Tides and Currents Weather Stations Pressure Air Temp Water Temp Dewpoint Dewpoint Depression Visibility Wind Speed Wind Dir Waves Ship Positions

Sid Moller

Owner: Genesis Marine, LLC, Houston, TX. More information available from US FCC via Universal Licensing System and Coast Guard Vessel Documentation Center.

Last reported at 2016-Jun-02 12:27 UTC. Time now 2016-Jun-30 19:32 UTC.
Position N 29°29' W 094°51'.
Warning: this ship's position is 28 days out of date.

; draft 3.3 m.

MMSI: 367504980.

Date/timePositionNaut miles runAvg speedWind from/ knotsBaromVisibWave heightAir tempDewpointWater temp
2016-Jun-02 12:27N 29°29' W 094°51'10 5.1
2016-Jun-02 10:31N 29°37' W 094°57'6 5.3
2016-Jun-02 09:29N 29°42' W 095°00'4 4.8
2016-Jun-02 08:33N 29°45' W 095°04'3 0.1
2016-Jun-01 10:20N 29°44' W 095°07'3 4.2
2016-Jun-01 09:34N 29°45' W 095°04'1 1.2
2016-Jun-01 08:24N 29°44' W 095°03'4 4.6
2016-Jun-01 07:33N 29°42' W 094°59'6 5.5
2016-Jun-01 06:31N 29°36' W 094°57'6 6.1
2016-Jun-01 05:33N 29°31' W 094°53'  
2016-May-27 20:14N 29°27' W 094°51'3 4.1
2016-May-27 19:32N 29°30' W 094°52'4 4.2
2016-May-27 18:33N 29°33' W 094°55'4 4.5
2016-May-27 17:33N 29°37' W 094°57'4 4.2
2016-May-27 16:33N 29°41' W 094°59'4 4.0
2016-May-27 15:33N 29°44' W 095°02'4 0.1
2016-May-26 14:06N 29°45' W 095°06'1 0.0
2016-May-25 02:15N 29°46' W 095°05'3 4.8
2016-May-25 01:34N 29°44' W 095°02'1 0.0
2016-May-23 22:33N 29°44' W 095°03'  
Track history (hours):
 
Tides and Currents Weather Stations Pressure Air Temp Water Temp Dewpoint Dewpoint Depression Visibility Wind Speed Wind Dir Waves Ship Positions

Sid Moller

Owner: Genesis Marine, LLC, Houston, TX. More information available from US FCC via Universal Licensing System and Coast Guard Vessel Documentation Center.

Last reported at 2016-Jun-02 12:27 UTC. Time now 2016-Jun-30 19:32 UTC.
Position N 29°29' W 094°51'.
Warning: this ship's position is 28 days out of date.

; draft 3.3 m.

MMSI: 367504980.

Date/timePositionNaut miles runAvg speedWind from/ knotsBaromVisibWave heightAir tempDewpointWater temp
2016-Jun-02 12:27N 29°29' W 094°51'10 5.1
2016-Jun-02 10:31N 29°37' W 094°57'6 5.3
2016-Jun-02 09:29N 29°42' W 095°00'4 4.8
2016-Jun-02 08:33N 29°45' W 095°04'3 0.1
2016-Jun-01 10:20N 29°44' W 095°07'3 4.2
2016-Jun-01 09:34N 29°45' W 095°04'1 1.2
2016-Jun-01 08:24N 29°44' W 095°03'4 4.6
2016-Jun-01 07:33N 29°42' W 094°59'6 5.5
2016-Jun-01 06:31N 29°36' W 094°57'6 6.1
2016-Jun-01 05:33N 29°31' W 094°53'  
2016-May-27 20:14N 29°27' W 094°51'3 4.1
2016-May-27 19:32N 29°30' W 094°52'4 4.2
2016-May-27 18:33N 29°33' W 094°55'4 4.5
2016-May-27 17:33N 29°37' W 094°57'4 4.2
2016-May-27 16:33N 29°41' W 094°59'4 4.0
2016-May-27 15:33N 29°44' W 095°02'4 0.1
2016-May-26 14:06N 29°45' W 095°06'1 0.0
2016-May-25 02:15N 29°46' W 095°05'3 4.8
2016-May-25 01:34N 29°44' W 095°02'1 0.0
2016-May-23 22:33N 29°44' W 095°03'  

Dump ship's entire track history